sensor_id;sensor_type;location;lat;lon;timestamp;P1;durP1;ratioP1;P2;durP2;ratioP2
6667;SDS011;3370;47.712;9.082;2022-12-18T00:01:22;69.87;;;33.00;;
6667;SDS011;3370;47.712;9.082;2022-12-18T00:03:52;72.90;;;33.20;;
6667;SDS011;3370;47.712;9.082;2022-12-18T00:06:20;63.07;;;31.90;;
6667;SDS011;3370;47.712;9.082;2022-12-18T00:08:47;67.53;;;32.37;;
6667;SDS011;3370;47.712;9.082;2022-12-18T00:11:14;73.87;;;35.17;;
6667;SDS011;3370;47.712;9.082;2022-12-18T00:13:43;63.43;;;32.60;;
6667;SDS011;3370;47.712;9.082;2022-12-18T00:16:10;75.57;;;35.70;;
6667;SDS011;3370;47.712;9.082;2022-12-18T00:18:45;71.30;;;32.90;;
6667;SDS011;3370;47.712;9.082;2022-12-18T00:21:12;63.70;;;33.73;;
6667;SDS011;3370;47.712;9.082;2022-12-18T00:23:40;80.43;;;34.63;;
6667;SDS011;3370;47.712;9.082;2022-12-18T00:26:10;69.87;;;34.77;;
6667;SDS011;3370;47.712;9.082;2022-12-18T00:28:45;63.40;;;33.03;;
6667;SDS011;3370;47.712;9.082;2022-12-18T00:31:16;80.20;;;36.50;;
6667;SDS011;3370;47.712;9.082;2022-12-18T00:33:47;77.03;;;36.00;;
6667;SDS011;3370;47.712;9.082;2022-12-18T00:36:14;76.83;;;35.60;;
6667;SDS011;3370;47.712;9.082;2022-12-18T00:38:43;80.33;;;39.07;;
6667;SDS011;3370;47.712;9.082;2022-12-18T00:41:11;99.63;;;50.27;;
6667;SDS011;3370;47.712;9.082;2022-12-18T00:43:59;76.77;;;36.40;;
6667;SDS011;3370;47.712;9.082;2022-12-18T00:46:25;66.60;;;33.40;;
6667;SDS011;3370;47.712;9.082;2022-12-18T00:48:51;69.17;;;32.57;;
6667;SDS011;3370;47.712;9.082;2022-12-18T00:51:16;67.53;;;33.70;;
6667;SDS011;3370;47.712;9.082;2022-12-18T00:53:42;75.70;;;32.13;;
6667;SDS011;3370;47.712;9.082;2022-12-18T00:56:08;60.10;;;32.60;;
6667;SDS011;3370;47.712;9.082;2022-12-18T00:58:34;73.93;;;35.00;;
6667;SDS011;3370;47.712;9.082;2022-12-18T01:01:00;81.20;;;37.67;;
6667;SDS011;3370;47.712;9.082;2022-12-18T01:03:25;71.93;;;36.97;;
6667;SDS011;3370;47.712;9.082;2022-12-18T01:05:51;91.27;;;40.40;;
6667;SDS011;3370;47.712;9.082;2022-12-18T01:08:17;91.73;;;41.40;;
6667;SDS011;3370;47.712;9.082;2022-12-18T01:10:43;83.07;;;36.27;;
6667;SDS011;3370;47.712;9.082;2022-12-18T01:13:08;68.73;;;34.20;;
6667;SDS011;3370;47.712;9.082;2022-12-18T01:15:34;77.77;;;37.27;;
6667;SDS011;3370;47.712;9.082;2022-12-18T01:18:00;72.07;;;34.37;;
6667;SDS011;3370;47.712;9.082;2022-12-18T01:20:26;83.80;;;34.90;;
6667;SDS011;3370;47.712;9.082;2022-12-18T01:22:52;68.00;;;33.67;;
6667;SDS011;3370;47.712;9.082;2022-12-18T01:25:17;72.30;;;33.83;;
6667;SDS011;3370;47.712;9.082;2022-12-18T01:27:43;97.43;;;40.10;;
6667;SDS011;3370;47.712;9.082;2022-12-18T01:30:09;88.50;;;39.57;;
6667;SDS011;3370;47.712;9.082;2022-12-18T01:32:36;76.80;;;35.30;;
6667;SDS011;3370;47.712;9.082;2022-12-18T01:35:02;76.77;;;33.90;;
6667;SDS011;3370;47.712;9.082;2022-12-18T01:37:28;73.77;;;32.90;;
6667;SDS011;3370;47.712;9.082;2022-12-18T01:39:54;79.07;;;35.67;;
6667;SDS011;3370;47.712;9.082;2022-12-18T01:42:20;77.47;;;35.10;;
6667;SDS011;3370;47.712;9.082;2022-12-18T01:44:51;73.57;;;33.83;;
6667;SDS011;3370;47.712;9.082;2022-12-18T01:50:16;80.37;;;36.67;;
6667;SDS011;3370;47.712;9.082;2022-12-18T01:53:00;70.03;;;32.97;;
6667;SDS011;3370;47.712;9.082;2022-12-18T01:55:49;70.00;;;34.10;;
6667;SDS011;3370;47.712;9.082;2022-12-18T01:58:27;72.10;;;33.27;;
6667;SDS011;3370;47.712;9.082;2022-12-18T02:01:13;76.80;;;34.73;;
6667;SDS011;3370;47.712;9.082;2022-12-18T02:03:43;66.40;;;31.90;;
6667;SDS011;3370;47.712;9.082;2022-12-18T02:06:12;70.10;;;33.47;;
6667;SDS011;3370;47.712;9.082;2022-12-18T02:14:44;69.37;;;32.77;;
6667;SDS011;3370;47.712;9.082;2022-12-18T02:17:42;73.83;;;33.63;;
6667;SDS011;3370;47.712;9.082;2022-12-18T02:20:32;66.03;;;31.27;;
6667;SDS011;3370;47.712;9.082;2022-12-18T02:23:19;64.30;;;32.70;;
6667;SDS011;3370;47.712;9.082;2022-12-18T02:28:31;71.67;;;33.50;;
6667;SDS011;3370;47.712;9.082;2022-12-18T02:31:25;69.37;;;32.57;;
6667;SDS011;3370;47.712;9.082;2022-12-18T02:34:02;68.03;;;34.50;;
6667;SDS011;3370;47.712;9.082;2022-12-18T02:36:31;69.20;;;33.20;;
6667;SDS011;3370;47.712;9.082;2022-12-18T02:38:58;76.77;;;34.50;;
6667;SDS011;3370;47.712;9.082;2022-12-18T02:41:26;78.37;;;33.03;;
6667;SDS011;3370;47.712;9.082;2022-12-18T02:43:56;77.23;;;35.00;;
6667;SDS011;3370;47.712;9.082;2022-12-18T02:46:35;72.00;;;33.70;;
6667;SDS011;3370;47.712;9.082;2022-12-18T02:58:40;65.73;;;32.40;;
6667;SDS011;3370;47.712;9.082;2022-12-18T03:01:13;68.30;;;34.50;;
6667;SDS011;3370;47.712;9.082;2022-12-18T03:04:01;74.17;;;34.90;;
6667;SDS011;3370;47.712;9.082;2022-12-18T03:06:43;70.33;;;33.07;;
6667;SDS011;3370;47.712;9.082;2022-12-18T03:09:17;81.47;;;35.53;;
6667;SDS011;3370;47.712;9.082;2022-12-18T03:12:14;72.23;;;31.60;;
6667;SDS011;3370;47.712;9.082;2022-12-18T03:17:32;75.37;;;32.33;;
6667;SDS011;3370;47.712;9.082;2022-12-18T03:20:01;65.43;;;32.53;;
6667;SDS011;3370;47.712;9.082;2022-12-18T03:22:35;69.00;;;32.07;;
6667;SDS011;3370;47.712;9.082;2022-12-18T03:25:04;65.17;;;32.63;;
6667;SDS011;3370;47.712;9.082;2022-12-18T03:27:35;64.80;;;33.17;;
6667;SDS011;3370;47.712;9.082;2022-12-18T03:30:06;72.30;;;31.73;;
6667;SDS011;3370;47.712;9.082;2022-12-18T03:35:29;65.07;;;29.03;;
6667;SDS011;3370;47.712;9.082;2022-12-18T03:38:00;62.37;;;31.60;;
6667;SDS011;3370;47.712;9.082;2022-12-18T03:40:35;65.73;;;32.30;;
6667;SDS011;3370;47.712;9.082;2022-12-18T03:43:10;65.27;;;33.10;;
6667;SDS011;3370;47.712;9.082;2022-12-18T03:46:06;69.10;;;30.50;;
6667;SDS011;3370;47.712;9.082;2022-12-18T03:48:43;74.43;;;31.03;;
6667;SDS011;3370;47.712;9.082;2022-12-18T03:54:24;62.17;;;28.60;;
6667;SDS011;3370;47.712;9.082;2022-12-18T03:57:01;59.40;;;29.60;;
6667;SDS011;3370;47.712;9.082;2022-12-18T03:59:34;61.80;;;29.67;;
6667;SDS011;3370;47.712;9.082;2022-12-18T04:02:02;71.40;;;33.23;;
6667;SDS011;3370;47.712;9.082;2022-12-18T04:04:31;67.23;;;31.50;;
6667;SDS011;3370;47.712;9.082;2022-12-18T04:07:01;83.50;;;33.20;;
6667;SDS011;3370;47.712;9.082;2022-12-18T04:09:27;63.67;;;32.07;;
6667;SDS011;3370;47.712;9.082;2022-12-18T04:11:55;67.43;;;32.33;;
6667;SDS011;3370;47.712;9.082;2022-12-18T04:14:20;70.83;;;30.30;;
6667;SDS011;3370;47.712;9.082;2022-12-18T04:16:46;72.47;;;33.20;;
6667;SDS011;3370;47.712;9.082;2022-12-18T04:19:12;68.40;;;32.70;;
6667;SDS011;3370;47.712;9.082;2022-12-18T04:21:38;77.87;;;31.47;;
6667;SDS011;3370;47.712;9.082;2022-12-18T04:24:04;64.80;;;32.50;;
6667;SDS011;3370;47.712;9.082;2022-12-18T04:26:29;65.23;;;30.30;;
6667;SDS011;3370;47.712;9.082;2022-12-18T04:28:55;60.77;;;29.30;;
6667;SDS011;3370;47.712;9.082;2022-12-18T04:31:21;66.10;;;29.30;;
6667;SDS011;3370;47.712;9.082;2022-12-18T04:33:47;61.07;;;27.43;;
6667;SDS011;3370;47.712;9.082;2022-12-18T04:36:12;72.70;;;30.47;;
6667;SDS011;3370;47.712;9.082;2022-12-18T04:38:38;57.47;;;27.73;;
6667;SDS011;3370;47.712;9.082;2022-12-18T04:41:04;62.87;;;29.57;;
6667;SDS011;3370;47.712;9.082;2022-12-18T04:43:30;60.73;;;29.80;;
6667;SDS011;3370;47.712;9.082;2022-12-18T04:46:04;68.40;;;30.10;;
6667;SDS011;3370;47.712;9.082;2022-12-18T04:48:32;62.73;;;28.77;;
6667;SDS011;3370;47.712;9.082;2022-12-18T04:50:58;65.90;;;31.00;;
6667;SDS011;3370;47.712;9.082;2022-12-18T04:53:24;68.23;;;30.93;;
6667;SDS011;3370;47.712;9.082;2022-12-18T04:55:50;69.33;;;30.50;;
6667;SDS011;3370;47.712;9.082;2022-12-18T04:58:15;64.13;;;28.40;;
6667;SDS011;3370;47.712;9.082;2022-12-18T05:00:41;57.57;;;28.27;;
6667;SDS011;3370;47.712;9.082;2022-12-18T05:03:08;67.67;;;30.23;;
6667;SDS011;3370;47.712;9.082;2022-12-18T05:05:34;70.37;;;30.37;;
6667;SDS011;3370;47.712;9.082;2022-12-18T05:08:00;60.93;;;28.23;;
6667;SDS011;3370;47.712;9.082;2022-12-18T05:10:29;67.93;;;29.50;;
6667;SDS011;3370;47.712;9.082;2022-12-18T05:12:55;63.40;;;28.40;;
6667;SDS011;3370;47.712;9.082;2022-12-18T05:15:27;63.57;;;29.47;;
6667;SDS011;3370;47.712;9.082;2022-12-18T05:17:55;69.27;;;29.70;;
6667;SDS011;3370;47.712;9.082;2022-12-18T05:20:22;63.50;;;29.53;;
6667;SDS011;3370;47.712;9.082;2022-12-18T05:22:48;59.30;;;30.10;;
6667;SDS011;3370;47.712;9.082;2022-12-18T05:25:15;65.10;;;30.37;;
6667;SDS011;3370;47.712;9.082;2022-12-18T05:27:41;64.70;;;30.53;;
6667;SDS011;3370;47.712;9.082;2022-12-18T05:30:07;72.33;;;32.93;;
6667;SDS011;3370;47.712;9.082;2022-12-18T05:32:34;60.63;;;28.60;;
6667;SDS011;3370;47.712;9.082;2022-12-18T05:35:00;63.93;;;29.17;;
6667;SDS011;3370;47.712;9.082;2022-12-18T05:37:25;68.40;;;30.37;;
6667;SDS011;3370;47.712;9.082;2022-12-18T05:39:51;68.83;;;34.10;;
6667;SDS011;3370;47.712;9.082;2022-12-18T05:42:17;58.43;;;29.70;;
6667;SDS011;3370;47.712;9.082;2022-12-18T05:44:43;70.13;;;30.43;;
6667;SDS011;3370;47.712;9.082;2022-12-18T05:47:09;65.93;;;27.90;;
6667;SDS011;3370;47.712;9.082;2022-12-18T05:49:35;68.30;;;28.80;;
6667;SDS011;3370;47.712;9.082;2022-12-18T05:52:00;69.53;;;31.47;;
6667;SDS011;3370;47.712;9.082;2022-12-18T05:54:27;58.17;;;27.27;;
6667;SDS011;3370;47.712;9.082;2022-12-18T05:56:53;62.40;;;29.90;;
6667;SDS011;3370;47.712;9.082;2022-12-18T05:59:19;63.00;;;26.50;;
6667;SDS011;3370;47.712;9.082;2022-12-18T06:01:45;61.10;;;27.17;;
6667;SDS011;3370;47.712;9.082;2022-12-18T06:04:11;52.90;;;25.30;;
6667;SDS011;3370;47.712;9.082;2022-12-18T06:06:36;57.33;;;26.07;;
6667;SDS011;3370;47.712;9.082;2022-12-18T06:09:02;57.57;;;27.87;;
6667;SDS011;3370;47.712;9.082;2022-12-18T06:11:35;65.60;;;28.70;;
6667;SDS011;3370;47.712;9.082;2022-12-18T06:14:02;66.10;;;27.97;;
6667;SDS011;3370;47.712;9.082;2022-12-18T06:16:30;67.60;;;28.73;;
6667;SDS011;3370;47.712;9.082;2022-12-18T06:18:57;62.03;;;28.47;;
6667;SDS011;3370;47.712;9.082;2022-12-18T06:21:25;56.73;;;27.90;;
6667;SDS011;3370;47.712;9.082;2022-12-18T06:23:52;60.53;;;28.33;;
6667;SDS011;3370;47.712;9.082;2022-12-18T06:26:17;57.77;;;28.87;;
6667;SDS011;3370;47.712;9.082;2022-12-18T06:28:43;63.60;;;28.27;;
6667;SDS011;3370;47.712;9.082;2022-12-18T06:31:09;71.43;;;29.93;;
6667;SDS011;3370;47.712;9.082;2022-12-18T06:33:36;70.73;;;29.93;;
6667;SDS011;3370;47.712;9.082;2022-12-18T06:36:12;61.83;;;29.77;;
6667;SDS011;3370;47.712;9.082;2022-12-18T06:38:39;62.10;;;29.27;;
6667;SDS011;3370;47.712;9.082;2022-12-18T06:41:07;67.20;;;29.27;;
6667;SDS011;3370;47.712;9.082;2022-12-18T06:43:39;62.63;;;29.10;;
6667;SDS011;3370;47.712;9.082;2022-12-18T06:46:05;63.93;;;29.80;;
6667;SDS011;3370;47.712;9.082;2022-12-18T06:48:31;73.80;;;30.80;;
6667;SDS011;3370;47.712;9.082;2022-12-18T06:50:57;62.70;;;28.53;;
6667;SDS011;3370;47.712;9.082;2022-12-18T06:53:23;64.03;;;28.50;;
6667;SDS011;3370;47.712;9.082;2022-12-18T06:55:50;63.73;;;29.60;;
6667;SDS011;3370;47.712;9.082;2022-12-18T06:58:16;71.03;;;31.30;;
6667;SDS011;3370;47.712;9.082;2022-12-18T07:00:42;62.33;;;29.60;;
6667;SDS011;3370;47.712;9.082;2022-12-18T07:03:08;73.10;;;30.03;;
6667;SDS011;3370;47.712;9.082;2022-12-18T07:05:33;66.20;;;30.10;;
6667;SDS011;3370;47.712;9.082;2022-12-18T07:07:59;68.80;;;31.80;;
6667;SDS011;3370;47.712;9.082;2022-12-18T07:10:25;66.73;;;31.47;;
6667;SDS011;3370;47.712;9.082;2022-12-18T07:12:51;63.73;;;29.40;;
6667;SDS011;3370;47.712;9.082;2022-12-18T07:15:17;68.87;;;31.27;;
6667;SDS011;3370;47.712;9.082;2022-12-18T07:17:43;70.93;;;30.47;;
6667;SDS011;3370;47.712;9.082;2022-12-18T07:20:09;63.00;;;29.27;;
6667;SDS011;3370;47.712;9.082;2022-12-18T07:22:35;68.00;;;31.33;;
6667;SDS011;3370;47.712;9.082;2022-12-18T07:25:01;67.73;;;29.57;;
6667;SDS011;3370;47.712;9.082;2022-12-18T07:27:27;71.53;;;30.80;;
6667;SDS011;3370;47.712;9.082;2022-12-18T07:29:52;73.33;;;32.57;;
6667;SDS011;3370;47.712;9.082;2022-12-18T07:32:18;73.73;;;31.40;;
6667;SDS011;3370;47.712;9.082;2022-12-18T07:34:44;72.40;;;32.00;;
6667;SDS011;3370;47.712;9.082;2022-12-18T07:37:10;70.73;;;32.37;;
6667;SDS011;3370;47.712;9.082;2022-12-18T07:39:35;66.17;;;30.57;;
6667;SDS011;3370;47.712;9.082;2022-12-18T07:42:01;74.63;;;32.40;;
6667;SDS011;3370;47.712;9.082;2022-12-18T07:44:46;65.70;;;30.17;;
6667;SDS011;3370;47.712;9.082;2022-12-18T07:47:11;66.27;;;30.00;;
6667;SDS011;3370;47.712;9.082;2022-12-18T07:49:37;66.53;;;31.43;;
6667;SDS011;3370;47.712;9.082;2022-12-18T07:52:03;67.07;;;29.90;;
6667;SDS011;3370;47.712;9.082;2022-12-18T07:54:29;76.93;;;31.20;;
6667;SDS011;3370;47.712;9.082;2022-12-18T07:56:55;71.60;;;30.63;;
6667;SDS011;3370;47.712;9.082;2022-12-18T07:59:20;75.07;;;30.20;;
6667;SDS011;3370;47.712;9.082;2022-12-18T08:01:46;67.63;;;27.77;;
6667;SDS011;3370;47.712;9.082;2022-12-18T08:04:12;69.10;;;30.40;;
6667;SDS011;3370;47.712;9.082;2022-12-18T08:06:38;72.63;;;29.10;;
6667;SDS011;3370;47.712;9.082;2022-12-18T08:09:06;72.30;;;31.10;;
6667;SDS011;3370;47.712;9.082;2022-12-18T08:11:34;79.80;;;31.37;;
6667;SDS011;3370;47.712;9.082;2022-12-18T08:14:00;77.70;;;32.73;;
6667;SDS011;3370;47.712;9.082;2022-12-18T08:16:25;71.43;;;30.90;;
6667;SDS011;3370;47.712;9.082;2022-12-18T08:18:52;67.23;;;31.20;;
6667;SDS011;3370;47.712;9.082;2022-12-18T08:21:28;75.07;;;31.47;;
6667;SDS011;3370;47.712;9.082;2022-12-18T08:23:57;72.00;;;30.97;;
6667;SDS011;3370;47.712;9.082;2022-12-18T08:26:25;75.87;;;31.17;;
6667;SDS011;3370;47.712;9.082;2022-12-18T08:28:54;68.17;;;32.57;;
6667;SDS011;3370;47.712;9.082;2022-12-18T08:31:21;69.67;;;30.07;;
6667;SDS011;3370;47.712;9.082;2022-12-18T08:33:48;69.80;;;30.17;;
6667;SDS011;3370;47.712;9.082;2022-12-18T08:36:16;76.90;;;33.13;;
6667;SDS011;3370;47.712;9.082;2022-12-18T08:38:42;63.47;;;29.40;;
6667;SDS011;3370;47.712;9.082;2022-12-18T08:41:09;70.43;;;30.73;;
6667;SDS011;3370;47.712;9.082;2022-12-18T08:43:38;71.07;;;29.17;;
6667;SDS011;3370;47.712;9.082;2022-12-18T08:46:23;69.30;;;30.40;;
6667;SDS011;3370;47.712;9.082;2022-12-18T08:48:51;73.60;;;31.07;;
6667;SDS011;3370;47.712;9.082;2022-12-18T08:51:19;61.30;;;27.93;;
6667;SDS011;3370;47.712;9.082;2022-12-18T08:53:45;69.37;;;29.67;;
6667;SDS011;3370;47.712;9.082;2022-12-18T08:56:12;67.90;;;28.70;;
6667;SDS011;3370;47.712;9.082;2022-12-18T08:58:39;71.10;;;32.63;;
6667;SDS011;3370;47.712;9.082;2022-12-18T09:01:06;68.00;;;30.27;;
6667;SDS011;3370;47.712;9.082;2022-12-18T09:03:36;70.57;;;31.03;;
6667;SDS011;3370;47.712;9.082;2022-12-18T09:06:02;78.60;;;33.40;;
6667;SDS011;3370;47.712;9.082;2022-12-18T09:08:28;75.90;;;31.23;;
6667;SDS011;3370;47.712;9.082;2022-12-18T09:10:54;73.40;;;30.63;;
6667;SDS011;3370;47.712;9.082;2022-12-18T09:13:21;77.43;;;31.77;;
6667;SDS011;3370;47.712;9.082;2022-12-18T09:15:48;75.23;;;31.67;;
6667;SDS011;3370;47.712;9.082;2022-12-18T09:18:20;64.93;;;29.27;;
6667;SDS011;3370;47.712;9.082;2022-12-18T09:20:47;69.87;;;31.03;;
6667;SDS011;3370;47.712;9.082;2022-12-18T09:23:15;83.30;;;32.10;;
6667;SDS011;3370;47.712;9.082;2022-12-18T09:25:41;70.73;;;29.70;;
6667;SDS011;3370;47.712;9.082;2022-12-18T09:28:14;75.80;;;31.13;;
6667;SDS011;3370;47.712;9.082;2022-12-18T09:30:43;77.43;;;30.90;;
6667;SDS011;3370;47.712;9.082;2022-12-18T09:33:14;71.20;;;30.40;;
6667;SDS011;3370;47.712;9.082;2022-12-18T09:35:42;79.37;;;32.20;;
6667;SDS011;3370;47.712;9.082;2022-12-18T09:38:12;73.20;;;32.50;;
6667;SDS011;3370;47.712;9.082;2022-12-18T09:40:47;69.93;;;31.13;;
6667;SDS011;3370;47.712;9.082;2022-12-18T09:43:20;75.70;;;31.60;;
6667;SDS011;3370;47.712;9.082;2022-12-18T09:46:16;71.20;;;29.03;;
6667;SDS011;3370;47.712;9.082;2022-12-18T09:48:59;78.97;;;32.90;;
6667;SDS011;3370;47.712;9.082;2022-12-18T09:51:53;77.07;;;31.77;;
6667;SDS011;3370;47.712;9.082;2022-12-18T09:54:36;74.57;;;30.53;;
6667;SDS011;3370;47.712;9.082;2022-12-18T09:57:05;73.97;;;31.93;;
6667;SDS011;3370;47.712;9.082;2022-12-18T09:59:38;86.77;;;33.10;;
6667;SDS011;3370;47.712;9.082;2022-12-18T10:02:12;77.40;;;31.13;;
6667;SDS011;3370;47.712;9.082;2022-12-18T10:04:54;87.33;;;31.63;;
6667;SDS011;3370;47.712;9.082;2022-12-18T10:07:55;68.10;;;30.20;;
6667;SDS011;3370;47.712;9.082;2022-12-18T10:13:32;75.97;;;33.20;;
6667;SDS011;3370;47.712;9.082;2022-12-18T10:16:12;69.83;;;29.43;;
6667;SDS011;3370;47.712;9.082;2022-12-18T10:24:40;71.73;;;31.23;;
6667;SDS011;3370;47.712;9.082;2022-12-18T10:27:26;77.13;;;30.97;;
6667;SDS011;3370;47.712;9.082;2022-12-18T10:29:53;72.47;;;31.50;;
6667;SDS011;3370;47.712;9.082;2022-12-18T10:32:23;77.47;;;29.70;;
6667;SDS011;3370;47.712;9.082;2022-12-18T10:34:54;80.50;;;33.30;;
6667;SDS011;3370;47.712;9.082;2022-12-18T10:37:25;71.13;;;32.10;;
6667;SDS011;3370;47.712;9.082;2022-12-18T10:40:12;68.90;;;30.93;;
6667;SDS011;3370;47.712;9.082;2022-12-18T10:42:41;82.23;;;32.77;;
6667;SDS011;3370;47.712;9.082;2022-12-18T10:45:10;72.90;;;30.20;;
6667;SDS011;3370;47.712;9.082;2022-12-18T10:47:57;78.30;;;33.20;;
6667;SDS011;3370;47.712;9.082;2022-12-18T10:50:31;79.43;;;32.27;;
6667;SDS011;3370;47.712;9.082;2022-12-18T10:53:00;87.17;;;33.60;;
6667;SDS011;3370;47.712;9.082;2022-12-18T11:01:01;81.43;;;31.00;;
6667;SDS011;3370;47.712;9.082;2022-12-18T11:03:41;67.37;;;29.63;;
6667;SDS011;3370;47.712;9.082;2022-12-18T11:06:32;68.03;;;28.27;;
6667;SDS011;3370;47.712;9.082;2022-12-18T11:08:59;84.60;;;30.50;;
6667;SDS011;3370;47.712;9.082;2022-12-18T11:11:50;65.27;;;29.03;;
6667;SDS011;3370;47.712;9.082;2022-12-18T11:14:23;78.27;;;31.60;;
6667;SDS011;3370;47.712;9.082;2022-12-18T11:17:18;65.50;;;26.17;;
6667;SDS011;3370;47.712;9.082;2022-12-18T11:19:52;61.73;;;26.23;;
6667;SDS011;3370;47.712;9.082;2022-12-18T11:22:25;67.70;;;26.87;;
6667;SDS011;3370;47.712;9.082;2022-12-18T11:24:58;61.90;;;26.93;;
6667;SDS011;3370;47.712;9.082;2022-12-18T11:27:30;72.50;;;30.50;;
6667;SDS011;3370;47.712;9.082;2022-12-18T11:33:06;68.67;;;30.07;;
6667;SDS011;3370;47.712;9.082;2022-12-18T11:38:15;63.70;;;28.20;;
6667;SDS011;3370;47.712;9.082;2022-12-18T11:40:55;63.47;;;28.97;;
6667;SDS011;3370;47.712;9.082;2022-12-18T11:43:33;60.87;;;27.67;;
6667;SDS011;3370;47.712;9.082;2022-12-18T11:46:26;59.73;;;26.97;;
6667;SDS011;3370;47.712;9.082;2022-12-18T11:49:12;55.77;;;25.57;;
6667;SDS011;3370;47.712;9.082;2022-12-18T11:51:55;61.90;;;26.63;;
6667;SDS011;3370;47.712;9.082;2022-12-18T11:54:59;60.73;;;27.67;;
6667;SDS011;3370;47.712;9.082;2022-12-18T11:57:47;57.77;;;25.27;;
6667;SDS011;3370;47.712;9.082;2022-12-18T12:00:40;60.73;;;26.77;;
6667;SDS011;3370;47.712;9.082;2022-12-18T12:21:00;57.97;;;27.60;;
6667;SDS011;3370;47.712;9.082;2022-12-18T12:24:08;55.97;;;26.10;;
6667;SDS011;3370;47.712;9.082;2022-12-18T12:29:46;54.43;;;25.17;;
6667;SDS011;3370;47.712;9.082;2022-12-18T12:36:04;62.30;;;27.40;;
6667;SDS011;3370;47.712;9.082;2022-12-18T12:38:49;72.67;;;29.17;;
6667;SDS011;3370;47.712;9.082;2022-12-18T12:41:21;63.77;;;28.40;;
6667;SDS011;3370;47.712;9.082;2022-12-18T12:44:16;56.20;;;25.13;;
6667;SDS011;3370;47.712;9.082;2022-12-18T12:46:50;72.77;;;29.57;;
6667;SDS011;3370;47.712;9.082;2022-12-18T12:49:21;62.13;;;28.13;;
6667;SDS011;3370;47.712;9.082;2022-12-18T12:54:32;62.80;;;26.70;;
6667;SDS011;3370;47.712;9.082;2022-12-18T12:57:05;63.50;;;27.80;;
6667;SDS011;3370;47.712;9.082;2022-12-18T12:59:52;61.77;;;27.23;;
6667;SDS011;3370;47.712;9.082;2022-12-18T13:07:11;64.23;;;26.37;;
6667;SDS011;3370;47.712;9.082;2022-12-18T13:15:46;66.77;;;27.53;;
6667;SDS011;3370;47.712;9.082;2022-12-18T13:23:27;62.47;;;27.97;;
6667;SDS011;3370;47.712;9.082;2022-12-18T13:31:11;58.23;;;25.87;;
6667;SDS011;3370;47.712;9.082;2022-12-18T13:36:49;62.60;;;28.57;;
6667;SDS011;3370;47.712;9.082;2022-12-18T13:41:50;57.20;;;27.27;;
6667;SDS011;3370;47.712;9.082;2022-12-18T13:44:58;59.17;;;25.40;;
6667;SDS011;3370;47.712;9.082;2022-12-18T13:47:25;60.10;;;26.27;;
6667;SDS011;3370;47.712;9.082;2022-12-18T13:50:00;53.60;;;24.93;;
6667;SDS011;3370;47.712;9.082;2022-12-18T13:52:43;57.23;;;25.70;;
6667;SDS011;3370;47.712;9.082;2022-12-18T13:55:18;56.40;;;25.47;;
6667;SDS011;3370;47.712;9.082;2022-12-18T13:57:45;63.27;;;26.63;;
6667;SDS011;3370;47.712;9.082;2022-12-18T14:02:55;59.67;;;26.30;;
6667;SDS011;3370;47.712;9.082;2022-12-18T14:05:30;55.43;;;26.53;;
6667;SDS011;3370;47.712;9.082;2022-12-18T14:08:03;56.17;;;26.10;;
6667;SDS011;3370;47.712;9.082;2022-12-18T14:10:35;60.10;;;26.50;;
6667;SDS011;3370;47.712;9.082;2022-12-18T14:13:21;65.23;;;28.00;;
6667;SDS011;3370;47.712;9.082;2022-12-18T14:16:05;58.00;;;25.00;;
6667;SDS011;3370;47.712;9.082;2022-12-18T14:18:44;63.87;;;26.80;;
6667;SDS011;3370;47.712;9.082;2022-12-18T14:21:34;60.27;;;27.27;;
6667;SDS011;3370;47.712;9.082;2022-12-18T14:24:04;59.07;;;25.97;;
6667;SDS011;3370;47.712;9.082;2022-12-18T14:26:44;54.07;;;23.70;;
6667;SDS011;3370;47.712;9.082;2022-12-18T14:29:27;53.53;;;25.17;;
6667;SDS011;3370;47.712;9.082;2022-12-18T14:32:10;54.60;;;25.07;;
6667;SDS011;3370;47.712;9.082;2022-12-18T14:34:49;55.30;;;24.37;;
6667;SDS011;3370;47.712;9.082;2022-12-18T14:37:22;57.00;;;25.90;;
6667;SDS011;3370;47.712;9.082;2022-12-18T14:39:57;60.47;;;27.20;;
6667;SDS011;3370;47.712;9.082;2022-12-18T14:42:26;56.40;;;26.97;;
6667;SDS011;3370;47.712;9.082;2022-12-18T14:48:46;71.10;;;28.77;;
6667;SDS011;3370;47.712;9.082;2022-12-18T14:53:58;57.67;;;26.03;;
6667;SDS011;3370;47.712;9.082;2022-12-18T14:56:36;62.80;;;26.40;;
6667;SDS011;3370;47.712;9.082;2022-12-18T14:59:13;59.67;;;26.73;;
6667;SDS011;3370;47.712;9.082;2022-12-18T15:07:18;55.00;;;25.37;;
6667;SDS011;3370;47.712;9.082;2022-12-18T15:18:19;62.83;;;26.17;;
6667;SDS011;3370;47.712;9.082;2022-12-18T15:20:49;54.43;;;24.30;;
6667;SDS011;3370;47.712;9.082;2022-12-18T15:23:28;61.30;;;24.97;;
6667;SDS011;3370;47.712;9.082;2022-12-18T15:26:24;53.23;;;24.00;;
6667;SDS011;3370;47.712;9.082;2022-12-18T15:28:56;54.90;;;24.70;;
6667;SDS011;3370;47.712;9.082;2022-12-18T15:31:29;57.50;;;24.23;;
6667;SDS011;3370;47.712;9.082;2022-12-18T15:34:10;56.93;;;24.60;;
6667;SDS011;3370;47.712;9.082;2022-12-18T15:36:44;58.77;;;24.70;;
6667;SDS011;3370;47.712;9.082;2022-12-18T15:39:10;56.23;;;24.93;;
6667;SDS011;3370;47.712;9.082;2022-12-18T15:41:38;62.80;;;26.70;;
6667;SDS011;3370;47.712;9.082;2022-12-18T15:47:02;55.33;;;24.13;;
6667;SDS011;3370;47.712;9.082;2022-12-18T15:49:35;64.53;;;24.63;;
6667;SDS011;3370;47.712;9.082;2022-12-18T15:52:01;64.53;;;25.40;;
6667;SDS011;3370;47.712;9.082;2022-12-18T15:54:27;63.30;;;25.23;;
6667;SDS011;3370;47.712;9.082;2022-12-18T15:57:12;64.93;;;27.00;;
6667;SDS011;3370;47.712;9.082;2022-12-18T15:59:51;60.83;;;24.40;;
6667;SDS011;3370;47.712;9.082;2022-12-18T16:02:21;64.83;;;26.17;;
6667;SDS011;3370;47.712;9.082;2022-12-18T16:04:48;59.47;;;27.50;;
6667;SDS011;3370;47.712;9.082;2022-12-18T16:07:16;55.80;;;24.07;;
6667;SDS011;3370;47.712;9.082;2022-12-18T16:09:42;67.70;;;27.77;;
6667;SDS011;3370;47.712;9.082;2022-12-18T16:12:14;55.67;;;23.03;;
6667;SDS011;3370;47.712;9.082;2022-12-18T16:14:44;60.20;;;28.43;;
6667;SDS011;3370;47.712;9.082;2022-12-18T16:17:11;64.10;;;25.57;;
6667;SDS011;3370;47.712;9.082;2022-12-18T16:19:39;65.77;;;27.60;;
6667;SDS011;3370;47.712;9.082;2022-12-18T16:22:17;65.03;;;24.70;;
6667;SDS011;3370;47.712;9.082;2022-12-18T16:24:47;68.93;;;26.53;;
6667;SDS011;3370;47.712;9.082;2022-12-18T16:27:14;56.07;;;25.40;;
6667;SDS011;3370;47.712;9.082;2022-12-18T16:29:43;70.23;;;28.47;;
6667;SDS011;3370;47.712;9.082;2022-12-18T16:45:32;66.20;;;26.20;;
6667;SDS011;3370;47.712;9.082;2022-12-18T16:47:58;60.50;;;25.60;;
6667;SDS011;3370;47.712;9.082;2022-12-18T16:50:24;55.13;;;24.23;;
6667;SDS011;3370;47.712;9.082;2022-12-18T16:52:50;60.40;;;27.33;;
6667;SDS011;3370;47.712;9.082;2022-12-18T16:55:15;66.33;;;27.93;;
6667;SDS011;3370;47.712;9.082;2022-12-18T16:57:41;60.43;;;26.77;;
6667;SDS011;3370;47.712;9.082;2022-12-18T17:00:07;56.87;;;26.13;;
6667;SDS011;3370;47.712;9.082;2022-12-18T17:02:34;65.37;;;28.90;;
6667;SDS011;3370;47.712;9.082;2022-12-18T17:05:00;62.20;;;27.90;;
6667;SDS011;3370;47.712;9.082;2022-12-18T17:07:26;58.30;;;27.13;;
6667;SDS011;3370;47.712;9.082;2022-12-18T17:09:52;66.30;;;29.17;;
6667;SDS011;3370;47.712;9.082;2022-12-18T17:12:18;58.10;;;25.80;;
6667;SDS011;3370;47.712;9.082;2022-12-18T17:14:44;59.27;;;26.90;;
6667;SDS011;3370;47.712;9.082;2022-12-18T17:17:10;61.87;;;28.60;;
6667;SDS011;3370;47.712;9.082;2022-12-18T17:19:36;57.87;;;26.27;;
6667;SDS011;3370;47.712;9.082;2022-12-18T17:22:02;64.80;;;27.70;;
6667;SDS011;3370;47.712;9.082;2022-12-18T17:24:28;60.60;;;25.90;;
6667;SDS011;3370;47.712;9.082;2022-12-18T17:26:54;53.37;;;25.07;;
6667;SDS011;3370;47.712;9.082;2022-12-18T17:29:20;54.70;;;26.77;;
6667;SDS011;3370;47.712;9.082;2022-12-18T17:31:46;57.20;;;25.23;;
6667;SDS011;3370;47.712;9.082;2022-12-18T17:34:12;55.50;;;25.70;;
6667;SDS011;3370;47.712;9.082;2022-12-18T17:36:38;62.60;;;26.47;;